createdAt,value
2019-03-13T00:00:41.581Z,12.70
2019-03-13T00:01:42.592Z,12.70
2019-03-13T00:02:44.494Z,12.50
2019-03-13T00:03:45.557Z,12.40
2019-03-13T00:04:46.700Z,12.30
2019-03-13T00:05:47.723Z,12.30
2019-03-13T00:06:48.732Z,12.20
2019-03-13T00:07:49.813Z,12.20
2019-03-13T00:08:50.876Z,12.10
2019-03-13T00:09:52.010Z,12.10
2019-03-13T00:10:53.027Z,12.10
2019-03-13T00:11:54.044Z,12.10
2019-03-13T00:12:55.065Z,12.10
2019-03-13T00:13:56.080Z,12.10
2019-03-13T00:14:57.116Z,12.10
2019-03-13T00:15:58.134Z,12.00
2019-03-13T00:16:59.148Z,12.00
2019-03-13T00:18:00.165Z,12.10
2019-03-13T00:19:01.193Z,12.00
2019-03-13T00:20:07.586Z,11.90
2019-03-13T00:21:08.597Z,11.80
2019-03-13T00:22:09.826Z,11.80
2019-03-13T00:23:10.851Z,11.60
2019-03-13T00:24:11.863Z,11.60
2019-03-13T00:25:12.985Z,11.50
2019-03-13T00:26:14.021Z,11.40
2019-03-13T00:27:15.047Z,11.30
2019-03-13T00:28:16.051Z,11.20
2019-03-13T00:29:17.072Z,11.20
2019-03-13T00:30:18.094Z,11.20
2019-03-13T00:31:19.118Z,11.10
2019-03-13T00:32:20.134Z,11.00
2019-03-13T00:33:21.149Z,11.00
2019-03-13T00:34:22.163Z,11.00
2019-03-13T00:35:23.208Z,11.00
2019-03-13T00:36:24.224Z,11.00
2019-03-13T00:37:25.248Z,11.00
2019-03-13T00:38:26.272Z,10.90
2019-03-13T00:39:27.304Z,10.80
2019-03-13T00:40:28.337Z,10.80
2019-03-13T00:41:29.361Z,10.70
2019-03-13T00:42:30.388Z,10.60
2019-03-13T00:43:31.404Z,10.50
2019-03-13T00:44:32.435Z,10.40
2019-03-13T00:45:33.673Z,10.30
2019-03-13T00:46:34.744Z,10.30
2019-03-13T00:47:35.799Z,10.20
2019-03-13T00:48:36.817Z,10.20
2019-03-13T00:49:37.842Z,10.10
2019-03-13T00:50:38.876Z,10.10
2019-03-13T00:51:39.896Z,10.00
2019-03-13T00:52:40.917Z,9.90
2019-03-13T00:53:41.944Z,9.80
2019-03-13T00:54:42.964Z,9.80
2019-03-13T00:55:44.020Z,9.80
2019-03-13T00:56:45.053Z,9.80
2019-03-13T00:57:46.087Z,9.60
2019-03-13T00:58:47.145Z,9.60
2019-03-13T00:59:48.200Z,9.40
2019-03-13T01:00:51.140Z,9.40
2019-03-13T01:01:56.844Z,9.40
2019-03-13T01:02:57.956Z,9.40
2019-03-13T01:04:03.755Z,9.30
2019-03-13T01:05:11.676Z,9.40
2019-03-13T01:06:14.616Z,9.30
2019-03-13T01:07:15.632Z,9.30
2019-03-13T01:08:16.659Z,9.20
2019-03-13T01:09:17.683Z,9.20
2019-03-13T01:10:18.704Z,9.20
2019-03-13T01:11:19.734Z,9.30
2019-03-13T01:12:20.761Z,9.30
2019-03-13T01:13:21.781Z,9.30
2019-03-13T01:14:22.797Z,9.30
2019-03-13T01:15:23.813Z,9.30
2019-03-13T01:16:24.836Z,9.30
2019-03-13T01:17:25.861Z,9.40
2019-03-13T01:18:26.892Z,9.30
2019-03-13T01:19:27.908Z,9.30
2019-03-13T01:20:28.927Z,9.30
2019-03-13T01:21:29.967Z,9.20
2019-03-13T01:22:30.980Z,9.10
2019-03-13T01:23:32.007Z,9.10
2019-03-13T01:24:33.020Z,9.10
2019-03-13T01:25:34.073Z,9.10
2019-03-13T01:26:35.132Z,9.00
2019-03-13T01:27:36.221Z,9.10
2019-03-13T01:28:37.243Z,9.00
2019-03-13T01:29:38.257Z,9.00
2019-03-13T01:30:41.185Z,9.10
2019-03-13T01:31:44.111Z,9.10
2019-03-13T01:32:56.061Z,9.10
2019-03-13T01:34:10.972Z,9.00
2019-03-13T01:35:13.885Z,9.00
2019-03-13T01:36:15.000Z,9.00
2019-03-13T01:37:16.044Z,9.00
2019-03-13T01:38:17.065Z,9.00
2019-03-13T01:39:18.084Z,8.90
2019-03-13T01:40:19.091Z,9.00
2019-03-13T01:41:20.133Z,8.90
2019-03-13T01:42:21.152Z,9.00
2019-03-13T01:43:22.172Z,9.00
2019-03-13T01:44:23.196Z,9.00
2019-03-13T01:45:24.211Z,9.00
2019-03-13T01:46:25.242Z,9.00
2019-03-13T01:47:26.261Z,8.90
2019-03-13T01:48:27.281Z,8.90
2019-03-13T01:49:28.305Z,9.00
2019-03-13T01:50:29.324Z,9.00
2019-03-13T01:51:30.345Z,9.00
2019-03-13T01:52:32.355Z,9.00
2019-03-13T01:53:33.602Z,9.00
2019-03-13T01:54:34.707Z,8.90
2019-03-13T01:55:35.716Z,8.90
2019-03-13T01:56:36.848Z,9.00
2019-03-13T01:57:37.866Z,8.90
2019-03-13T01:58:38.880Z,9.00
2019-03-13T01:59:39.909Z,9.00
2019-03-13T02:00:40.928Z,8.90
2019-03-13T02:01:41.956Z,8.90
2019-03-13T02:02:43.172Z,8.90
2019-03-13T02:03:44.289Z,8.90
2019-03-13T02:04:45.304Z,8.90
2019-03-13T02:05:46.330Z,8.90
2019-03-13T02:06:47.353Z,8.90
2019-03-13T02:07:48.369Z,8.80
2019-03-13T02:08:49.388Z,8.80
2019-03-13T02:09:50.405Z,8.80
2019-03-13T02:10:51.424Z,8.70
2019-03-13T02:11:52.452Z,8.70
2019-03-13T02:12:53.464Z,8.70
2019-03-13T02:13:54.508Z,8.60
2019-03-13T02:14:55.534Z,8.60
2019-03-13T02:15:56.580Z,8.50
2019-03-13T02:16:57.625Z,8.50
2019-03-13T02:17:58.644Z,8.50
2019-03-13T02:18:59.665Z,8.50
2019-03-13T02:20:00.689Z,8.40
2019-03-13T02:21:01.704Z,8.50
2019-03-13T02:22:02.825Z,8.50
2019-03-13T02:23:03.844Z,8.50
2019-03-13T02:24:04.968Z,8.50
2019-03-13T02:25:08.593Z,8.50
2019-03-13T02:26:09.622Z,8.60
2019-03-13T02:27:10.649Z,8.60
2019-03-13T02:28:11.672Z,8.60
2019-03-13T02:29:12.690Z,8.50
2019-03-13T02:30:17.820Z,8.50
2019-03-13T02:31:18.955Z,8.50
2019-03-13T02:32:19.966Z,8.50
2019-03-13T02:33:20.983Z,8.50
2019-03-13T02:34:22.013Z,8.50
2019-03-13T02:35:23.042Z,8.50
2019-03-13T02:36:24.092Z,8.40
2019-03-13T02:37:25.193Z,8.40
2019-03-13T02:38:26.206Z,8.40
2019-03-13T02:39:27.226Z,8.40
2019-03-13T02:40:28.245Z,8.40
2019-03-13T02:41:29.266Z,8.40
2019-03-13T02:42:30.295Z,8.40
2019-03-13T02:43:31.310Z,8.40
2019-03-13T02:44:32.324Z,8.50
2019-03-13T02:45:33.343Z,8.40
2019-03-13T02:46:34.361Z,8.40
2019-03-13T02:47:35.586Z,8.40
2019-03-13T02:48:36.640Z,8.40
2019-03-13T02:49:37.656Z,8.40
2019-03-13T02:50:38.694Z,8.30
2019-03-13T02:51:39.721Z,8.30
2019-03-13T02:52:40.745Z,8.30
2019-03-13T02:53:41.762Z,8.20
2019-03-13T02:54:42.785Z,8.20
2019-03-13T02:55:43.821Z,8.20
2019-03-13T02:56:44.842Z,8.30
2019-03-13T02:57:45.873Z,8.20
2019-03-13T02:58:47.023Z,8.10
2019-03-13T02:59:48.037Z,8.10
2019-03-13T03:00:53.849Z,8.10
2019-03-13T03:01:56.758Z,8.10
2019-03-13T03:02:59.791Z,8.10
2019-03-13T03:04:02.713Z,8.10
2019-03-13T03:05:05.027Z,8.00
2019-03-13T03:06:06.047Z,8.00
2019-03-13T03:07:07.071Z,8.00
2019-03-13T03:08:08.104Z,8.00
2019-03-13T03:09:09.208Z,8.00
2019-03-13T03:10:11.343Z,8.00
2019-03-13T03:11:12.761Z,8.00
2019-03-13T03:12:13.784Z,8.00
2019-03-13T03:13:14.839Z,8.00
2019-03-13T03:14:15.857Z,8.00
2019-03-13T03:15:17.578Z,8.10
2019-03-13T03:16:18.585Z,8.10
2019-03-13T03:17:19.589Z,8.10
2019-03-13T03:18:20.623Z,8.10
2019-03-13T03:19:21.662Z,8.20
2019-03-13T03:20:22.662Z,8.10
2019-03-13T03:21:23.684Z,8.20
2019-03-13T03:22:25.010Z,8.20
2019-03-13T03:23:26.042Z,8.20
2019-03-13T03:24:27.069Z,8.20
2019-03-13T03:25:28.104Z,8.20
2019-03-13T03:26:29.125Z,8.20
2019-03-13T03:27:30.133Z,8.20
2019-03-13T03:28:31.168Z,8.20
2019-03-13T03:29:32.203Z,8.20
2019-03-13T03:30:33.244Z,8.20
2019-03-13T03:31:34.463Z,8.20
2019-03-13T03:32:35.557Z,8.20
2019-03-13T03:33:36.952Z,8.30
2019-03-13T03:34:38.007Z,8.30
2019-03-13T03:35:39.028Z,8.30
2019-03-13T03:36:40.052Z,8.30
2019-03-13T03:37:41.069Z,8.30
2019-03-13T03:38:42.195Z,8.30
2019-03-13T03:39:43.222Z,8.30
2019-03-13T03:40:44.234Z,8.30
2019-03-13T03:41:45.350Z,8.30
2019-03-13T03:42:46.478Z,8.30
2019-03-13T03:43:47.518Z,8.30
2019-03-13T03:44:48.527Z,8.20
2019-03-13T03:45:49.542Z,8.20
2019-03-13T03:46:50.563Z,8.20
2019-03-13T03:47:51.598Z,8.20
2019-03-13T03:48:52.622Z,8.20
2019-03-13T03:49:53.657Z,8.20
2019-03-13T03:50:54.667Z,8.20
2019-03-13T03:51:55.692Z,8.20
2019-03-13T03:52:56.737Z,8.30
2019-03-13T03:53:57.756Z,8.30
2019-03-13T03:54:58.861Z,8.30
2019-03-13T03:55:59.880Z,8.30
2019-03-13T03:57:00.900Z,8.30
2019-03-13T03:58:01.937Z,8.30
2019-03-13T03:59:03.127Z,8.30
2019-03-13T04:00:14.111Z,8.30
2019-03-13T04:01:15.144Z,8.30
2019-03-13T04:02:16.169Z,8.30
2019-03-13T04:03:17.207Z,8.30
2019-03-13T04:04:18.236Z,8.30
2019-03-13T04:05:19.257Z,8.30
2019-03-13T04:06:20.607Z,8.20
2019-03-13T04:07:21.717Z,8.20
2019-03-13T04:08:22.844Z,8.20
2019-03-13T04:09:23.873Z,8.20
2019-03-13T04:10:24.915Z,8.30
2019-03-13T04:11:26.018Z,8.30
2019-03-13T04:12:27.033Z,8.20
2019-03-13T04:13:28.076Z,8.20
2019-03-13T04:14:29.095Z,8.20
2019-03-13T04:15:30.109Z,8.30
2019-03-13T04:16:31.130Z,8.30
2019-03-13T04:17:32.147Z,8.30
2019-03-13T04:18:33.184Z,8.30
2019-03-13T04:19:34.214Z,8.30
2019-03-13T04:20:35.240Z,8.30
2019-03-13T04:21:36.276Z,8.30
2019-03-13T04:22:37.284Z,8.30
2019-03-13T04:23:38.308Z,8.30
2019-03-13T04:24:39.336Z,8.30
2019-03-13T04:25:40.439Z,8.30
2019-03-13T04:26:43.391Z,8.30
2019-03-13T04:27:44.405Z,8.30
2019-03-13T04:28:45.437Z,8.30
2019-03-13T04:29:46.460Z,8.30
2019-03-13T04:30:47.485Z,8.40
2019-03-13T04:31:48.504Z,8.30
2019-03-13T04:32:49.552Z,8.30
2019-03-13T04:33:50.584Z,8.30
2019-03-13T04:34:51.604Z,8.40
2019-03-13T04:35:52.629Z,8.40
2019-03-13T04:36:53.655Z,8.40
2019-03-13T04:37:54.673Z,8.50
2019-03-13T04:38:55.701Z,8.40
2019-03-13T04:39:56.729Z,8.40
2019-03-13T04:40:57.752Z,8.40
2019-03-13T04:41:58.769Z,8.40
2019-03-13T04:42:59.793Z,8.40
2019-03-13T04:44:00.820Z,8.40
2019-03-13T04:45:03.876Z,8.40
2019-03-13T04:46:04.901Z,8.40
2019-03-13T04:47:05.940Z,8.40
2019-03-13T04:48:06.972Z,8.40
2019-03-13T04:49:08.003Z,8.40
2019-03-13T04:50:13.381Z,8.40
2019-03-13T04:51:14.397Z,8.30
2019-03-13T04:52:15.416Z,8.30
2019-03-13T04:53:16.454Z,8.30
2019-03-13T04:54:17.480Z,8.30
2019-03-13T04:55:18.509Z,8.30
2019-03-13T04:56:19.540Z,8.30
2019-03-13T04:57:20.553Z,8.30
2019-03-13T04:58:21.573Z,8.30
2019-03-13T04:59:22.607Z,8.30
2019-03-13T05:00:23.639Z,8.30
2019-03-13T05:01:26.267Z,8.20
2019-03-13T05:02:27.579Z,8.20
2019-03-13T05:03:28.597Z,8.20
2019-03-13T05:04:29.629Z,8.20
2019-03-13T05:05:42.394Z,8.10
2019-03-13T05:06:43.415Z,8.00
2019-03-13T05:07:44.444Z,8.00
2019-03-13T05:08:46.989Z,8.00
2019-03-13T05:09:48.016Z,8.00
2019-03-13T05:10:49.036Z,8.00
2019-03-13T05:11:50.058Z,7.90
2019-03-13T05:12:51.083Z,7.90
2019-03-13T05:13:52.230Z,7.90
2019-03-13T05:14:53.325Z,7.90
2019-03-13T05:15:54.345Z,7.90
2019-03-13T05:16:55.474Z,7.90
2019-03-13T05:17:56.507Z,7.90
2019-03-13T05:18:57.528Z,7.90
2019-03-13T05:19:58.564Z,7.90
2019-03-13T05:20:59.612Z,7.80
2019-03-13T05:22:00.633Z,7.80
2019-03-13T05:23:01.663Z,7.80
2019-03-13T05:24:02.801Z,7.80
2019-03-13T05:25:04.039Z,7.80
2019-03-13T05:26:05.082Z,7.80
2019-03-13T05:27:06.124Z,7.80
2019-03-13T05:28:07.166Z,7.80
2019-03-13T05:29:08.245Z,7.80
2019-03-13T05:30:09.538Z,7.80
2019-03-13T05:31:10.570Z,7.80
2019-03-13T05:32:11.604Z,7.90
2019-03-13T05:33:12.635Z,7.90
2019-03-13T05:34:13.670Z,7.80
2019-03-13T05:35:14.692Z,7.90
2019-03-13T05:36:16.973Z,7.90
2019-03-13T05:37:18.465Z,7.90
2019-03-13T05:38:19.497Z,7.80
2019-03-13T05:39:20.551Z,7.90
2019-03-13T05:40:21.666Z,7.90
2019-03-13T05:41:22.688Z,7.90
2019-03-13T05:42:23.716Z,7.80
2019-03-13T05:43:24.750Z,7.80
2019-03-13T05:44:25.772Z,7.80
2019-03-13T05:45:26.801Z,7.80
2019-03-13T05:46:27.821Z,7.80
2019-03-13T05:47:28.853Z,7.80
2019-03-13T05:48:29.877Z,7.80
2019-03-13T05:49:30.938Z,7.80
2019-03-13T05:50:32.036Z,7.80
2019-03-13T05:51:33.500Z,7.70
2019-03-13T05:52:34.526Z,7.70
2019-03-13T05:53:35.568Z,7.80
2019-03-13T05:54:36.604Z,7.70
2019-03-13T05:55:37.640Z,7.80
2019-03-13T05:56:40.769Z,7.80
2019-03-13T05:57:41.608Z,7.80
2019-03-13T05:58:42.641Z,7.80
2019-03-13T05:59:43.680Z,7.80
2019-03-13T06:00:44.701Z,7.80
2019-03-13T06:01:45.721Z,7.70
2019-03-13T06:02:47.944Z,7.70
2019-03-13T06:03:49.398Z,7.50
2019-03-13T06:04:50.420Z,7.60
2019-03-13T06:05:51.448Z,7.70
2019-03-13T06:06:52.472Z,7.70
2019-03-13T06:07:53.498Z,7.70
2019-03-13T06:08:54.528Z,7.70
2019-03-13T06:09:55.594Z,7.60
2019-03-13T06:10:56.688Z,7.60
2019-03-13T06:11:57.720Z,7.60
2019-03-13T06:12:58.744Z,7.60
2019-03-13T06:13:59.769Z,7.60
2019-03-13T06:15:03.434Z,7.60
2019-03-13T06:16:03.752Z,7.50
2019-03-13T06:17:04.861Z,7.50
2019-03-13T06:18:05.888Z,7.50
2019-03-13T06:19:06.912Z,7.50
2019-03-13T06:20:15.705Z,7.50
2019-03-13T06:21:16.762Z,7.50
2019-03-13T06:22:18.097Z,7.50
2019-03-13T06:23:19.175Z,7.50
2019-03-13T06:24:20.203Z,7.50
2019-03-13T06:25:21.237Z,7.50
2019-03-13T06:26:22.273Z,7.50
2019-03-13T06:27:23.294Z,7.60
2019-03-13T06:28:24.310Z,7.60
2019-03-13T06:29:25.337Z,7.60
2019-03-13T06:30:26.405Z,7.60
2019-03-13T06:31:27.511Z,7.70
2019-03-13T06:32:28.529Z,7.60
2019-03-13T06:33:29.552Z,7.70
2019-03-13T06:34:30.572Z,7.70
2019-03-13T06:35:31.615Z,7.70
2019-03-13T06:36:32.646Z,7.70
2019-03-13T06:37:33.729Z,7.70
2019-03-13T06:38:34.737Z,7.70
2019-03-13T06:39:35.759Z,7.70
2019-03-13T06:40:36.800Z,7.70
2019-03-13T06:41:37.829Z,7.70
2019-03-13T06:42:38.849Z,7.70
2019-03-13T06:43:39.885Z,7.70
2019-03-13T06:44:40.908Z,7.60
2019-03-13T06:45:42.050Z,7.50
2019-03-13T06:46:43.068Z,7.50
2019-03-13T06:47:44.093Z,7.40
2019-03-13T06:48:45.118Z,7.30
2019-03-13T06:49:46.141Z,7.20
2019-03-13T06:50:47.276Z,7.00
2019-03-13T06:51:48.362Z,6.90
2019-03-13T06:52:49.417Z,6.90
2019-03-13T06:53:50.447Z,6.90
2019-03-13T06:54:51.477Z,6.80
2019-03-13T06:55:52.519Z,6.80
2019-03-13T06:56:53.545Z,6.80
2019-03-13T06:57:54.579Z,6.80
2019-03-13T06:59:03.614Z,6.80
2019-03-13T07:00:30.245Z,6.90
2019-03-13T07:01:33.161Z,6.90
2019-03-13T07:02:36.100Z,6.90
2019-03-13T07:03:55.439Z,6.90
2019-03-13T07:04:58.365Z,6.90
2019-03-13T07:06:04.117Z,6.90
2019-03-13T07:07:07.026Z,6.90
2019-03-13T07:08:26.512Z,6.90
2019-03-13T07:09:39.709Z,6.90
2019-03-13T07:10:42.866Z,7.00
2019-03-13T07:11:57.881Z,7.00
2019-03-13T07:13:00.882Z,7.10
2019-03-13T07:14:03.876Z,7.20
2019-03-13T07:15:24.996Z,7.20
2019-03-13T07:16:33.793Z,7.30
2019-03-13T07:17:42.653Z,7.30
2019-03-13T07:18:45.591Z,7.30
2019-03-13T07:19:51.037Z,7.40
2019-03-13T07:21:10.546Z,7.40
2019-03-13T07:22:13.473Z,7.40
2019-03-13T07:23:19.498Z,7.40
2019-03-13T07:24:22.427Z,7.50
2019-03-13T07:25:31.317Z,7.50
2019-03-13T07:26:34.270Z,7.50
2019-03-13T07:27:53.524Z,7.60
2019-03-13T07:28:56.457Z,7.60
2019-03-13T07:30:15.802Z,7.60
2019-03-13T07:31:21.526Z,7.70
2019-03-13T07:32:36.262Z,7.80
2019-03-13T07:33:47.953Z,7.80
2019-03-13T07:35:02.581Z,7.80
2019-03-13T07:36:22.013Z,7.90
2019-03-13T07:37:24.971Z,8.00
2019-03-13T07:38:27.897Z,8.00
2019-03-13T07:39:33.346Z,8.00
2019-03-13T07:40:36.272Z,8.00
2019-03-13T07:41:39.216Z,8.00
2019-03-13T07:42:47.701Z,8.10
2019-03-13T07:44:07.171Z,8.10
2019-03-13T07:45:27.941Z,8.20
2019-03-13T07:46:47.660Z,8.30
2019-03-13T07:47:56.382Z,8.20
2019-03-13T07:49:02.090Z,8.20
2019-03-13T07:50:07.530Z,8.10
2019-03-13T07:51:10.476Z,8.20
2019-03-13T07:52:19.597Z,8.10
2019-03-13T07:53:34.612Z,8.10
2019-03-13T07:54:43.104Z,8.10
2019-03-13T07:56:04.221Z,8.20
2019-03-13T07:57:15.937Z,8.20
2019-03-13T07:58:18.874Z,8.30
2019-03-13T07:59:22.009Z,8.40
2019-03-13T08:00:40.090Z,8.40
2019-03-13T08:01:43.028Z,8.50
2019-03-13T08:02:48.453Z,8.50
2019-03-13T08:03:53.919Z,8.50
2019-03-13T08:04:59.686Z,8.50
2019-03-13T08:06:19.429Z,8.60
2019-03-13T08:07:25.664Z,8.60
2019-03-13T08:08:28.584Z,8.60
2019-03-13T08:09:34.322Z,8.60
2019-03-13T08:10:42.765Z,8.60
2019-03-13T08:11:55.085Z,8.60
2019-03-13T08:13:03.923Z,8.60
2019-03-13T08:14:09.522Z,8.60
2019-03-13T08:15:22.514Z,8.70
2019-03-13T08:16:34.522Z,8.60
2019-03-13T08:17:46.410Z,8.60
2019-03-13T08:18:49.353Z,8.60
2019-03-13T08:19:58.290Z,8.60
2019-03-13T08:21:06.774Z,8.60
2019-03-13T08:22:27.755Z,8.60
2019-03-13T08:23:33.262Z,8.60
2019-03-13T08:24:38.983Z,8.60
2019-03-13T08:25:41.924Z,8.60
2019-03-13T08:26:54.109Z,8.60
2019-03-13T08:28:05.897Z,8.60
2019-03-13T08:29:08.933Z,8.60
2019-03-13T08:30:12.366Z,8.60
2019-03-13T08:31:32.070Z,8.60
2019-03-13T08:32:35.002Z,8.60
2019-03-13T08:33:49.673Z,8.70
2019-03-13T08:34:52.840Z,8.70
2019-03-13T08:36:12.566Z,8.70
2019-03-13T08:37:27.822Z,8.70
2019-03-13T08:38:36.381Z,8.70
2019-03-13T08:39:41.817Z,8.60
2019-03-13T08:40:44.750Z,8.70
2019-03-13T08:41:47.690Z,8.70
2019-03-13T08:42:53.145Z,8.70
2019-03-13T08:44:05.059Z,8.80
2019-03-13T08:45:11.576Z,8.70
2019-03-13T08:46:14.509Z,8.70
2019-03-13T08:47:26.560Z,8.70
2019-03-13T08:48:35.402Z,8.70
2019-03-13T08:49:47.329Z,8.70
2019-03-13T08:51:07.018Z,8.70
2019-03-13T08:52:15.821Z,8.60
2019-03-13T08:53:35.111Z,8.60
2019-03-13T08:54:40.815Z,8.60
2019-03-13T08:56:01.857Z,8.60
2019-03-13T08:57:04.925Z,8.60
2019-03-13T08:58:07.850Z,8.60
2019-03-13T08:59:10.765Z,8.60
2019-03-13T09:00:32.134Z,8.60
2019-03-13T09:01:37.849Z,8.50
2019-03-13T09:02:53.133Z,8.50
2019-03-13T09:04:04.867Z,8.50
2019-03-13T09:05:08.477Z,8.50
2019-03-13T09:06:11.409Z,8.50
2019-03-13T09:07:26.350Z,8.50
2019-03-13T09:08:47.595Z,8.50
2019-03-13T09:09:56.157Z,8.50
2019-03-13T09:10:59.077Z,8.60
2019-03-13T09:12:16.935Z,8.60
2019-03-13T09:13:19.855Z,8.70
2019-03-13T09:14:28.313Z,8.70
2019-03-13T09:15:47.981Z,8.80
2019-03-13T09:17:07.740Z,8.70
2019-03-13T09:18:13.585Z,8.70
2019-03-13T09:19:31.360Z,8.70
2019-03-13T09:20:49.464Z,8.70
2019-03-13T09:21:52.388Z,8.80
2019-03-13T09:22:57.928Z,8.80
2019-03-13T09:24:09.754Z,8.80
2019-03-13T09:25:29.385Z,8.80
2019-03-13T09:26:32.325Z,8.70
2019-03-13T09:27:40.858Z,8.80
2019-03-13T09:28:46.809Z,8.80
2019-03-13T09:30:06.385Z,8.80
2019-03-13T09:31:09.365Z,8.70
2019-03-13T09:32:12.343Z,8.80
2019-03-13T09:33:24.030Z,8.80
2019-03-13T09:34:27.084Z,8.80
2019-03-13T09:35:32.587Z,8.80
2019-03-13T09:36:35.544Z,8.80
2019-03-13T09:37:44.260Z,8.90
2019-03-13T09:38:47.193Z,9.00
2019-03-13T09:39:50.121Z,9.10
2019-03-13T09:41:09.625Z,9.10
2019-03-13T09:42:12.561Z,9.20
2019-03-13T09:43:15.500Z,9.10
2019-03-13T09:44:21.202Z,9.10
2019-03-13T09:45:26.894Z,9.10
2019-03-13T09:46:44.902Z,9.00
2019-03-13T09:48:05.885Z,9.10
2019-03-13T09:49:14.616Z,9.00
2019-03-13T09:50:34.908Z,9.10
2019-03-13T09:51:37.852Z,9.20
2019-03-13T09:52:46.606Z,9.30
2019-03-13T09:53:49.553Z,9.30
2019-03-13T09:54:55.599Z,9.30
2019-03-13T09:55:58.528Z,9.30
2019-03-13T09:57:01.468Z,9.30
2019-03-13T09:58:10.252Z,9.40
2019-03-13T09:59:21.927Z,9.40
2019-03-13T10:00:44.315Z,9.40
2019-03-13T10:01:46.282Z,9.40
2019-03-13T10:02:51.922Z,9.30
2019-03-13T10:04:09.644Z,9.30
2019-03-13T10:05:27.493Z,9.40
2019-03-13T10:06:30.424Z,9.30
2019-03-13T10:07:33.346Z,9.30
2019-03-13T10:08:53.208Z,9.30
2019-03-13T10:10:12.798Z,9.30
2019-03-13T10:11:15.724Z,9.30
2019-03-13T10:12:21.609Z,9.20
2019-03-13T10:13:24.605Z,9.20
2019-03-13T10:14:27.618Z,9.20
2019-03-13T10:15:36.377Z,9.30
2019-03-13T10:16:42.350Z,9.30
2019-03-13T10:18:00.417Z,9.40
2019-03-13T10:19:09.371Z,9.50
2019-03-13T10:20:15.356Z,9.50
2019-03-13T10:21:20.784Z,9.50
2019-03-13T10:22:26.548Z,9.40
2019-03-13T10:23:29.488Z,9.40
2019-03-13T10:24:35.142Z,9.50
2019-03-13T10:25:43.717Z,9.60
2019-03-13T10:26:49.234Z,9.60
2019-03-13T10:27:57.815Z,9.60
2019-03-13T10:29:00.746Z,9.60
2019-03-13T10:30:10.889Z,9.60
2019-03-13T10:31:16.333Z,9.60
2019-03-13T10:32:22.029Z,9.70
2019-03-13T10:33:24.970Z,9.70
2019-03-13T10:34:34.088Z,9.80
2019-03-13T10:35:39.798Z,9.70
2019-03-13T10:36:42.728Z,9.70
2019-03-13T10:37:48.403Z,9.80
2019-03-13T10:39:00.414Z,9.80
2019-03-13T10:40:05.853Z,9.80
2019-03-13T10:41:23.921Z,9.80
2019-03-13T10:42:41.660Z,9.80
2019-03-13T10:44:02.817Z,9.70
2019-03-13T10:45:16.754Z,9.70
2019-03-13T10:46:28.441Z,9.70
2019-03-13T10:47:48.202Z,9.80
2019-03-13T10:48:53.364Z,9.90
2019-03-13T10:50:01.565Z,9.90
2019-03-13T10:51:04.533Z,9.90
2019-03-13T10:52:07.449Z,9.90
2019-03-13T10:53:25.515Z,9.90
2019-03-13T10:54:28.437Z,9.90
2019-03-13T10:55:31.364Z,9.90
2019-03-13T10:56:36.981Z,9.90
2019-03-13T10:57:51.837Z,10.00
2019-03-13T10:59:11.521Z,10.00
2019-03-13T11:00:15.786Z,10.00
2019-03-13T11:01:21.540Z,10.10
2019-03-13T11:02:24.456Z,10.00
2019-03-13T11:03:27.396Z,9.90
2019-03-13T11:04:46.926Z,9.90
2019-03-13T11:05:52.641Z,9.90
2019-03-13T11:07:10.372Z,10.00
2019-03-13T11:08:16.120Z,10.00
2019-03-13T11:09:19.085Z,10.10
2019-03-13T11:10:40.216Z,10.00
2019-03-13T11:11:59.585Z,10.10
2019-03-13T11:13:14.455Z,10.10
2019-03-13T11:14:23.385Z,10.00
2019-03-13T11:15:26.348Z,10.00
2019-03-13T11:16:34.870Z,10.10
2019-03-13T11:17:46.770Z,10.10
2019-03-13T11:18:52.465Z,10.20
2019-03-13T11:20:13.575Z,10.10
2019-03-13T11:21:16.608Z,10.10
2019-03-13T11:22:31.404Z,10.10
2019-03-13T11:23:34.410Z,10.10
2019-03-13T11:24:53.676Z,10.10
2019-03-13T11:26:13.221Z,10.20
2019-03-13T11:27:16.153Z,10.20
2019-03-13T11:28:31.218Z,10.10
2019-03-13T11:29:36.915Z,10.10
2019-03-13T11:30:45.832Z,9.90
2019-03-13T11:31:48.749Z,9.90
2019-03-13T11:33:00.573Z,9.80
2019-03-13T11:34:03.627Z,9.80
2019-03-13T11:35:13.421Z,9.80
2019-03-13T11:36:22.546Z,9.80
2019-03-13T11:37:37.356Z,9.80
2019-03-13T11:38:43.066Z,9.80
2019-03-13T11:40:02.613Z,9.80
2019-03-13T11:41:05.583Z,9.80
2019-03-13T11:42:11.493Z,9.80
2019-03-13T11:43:31.173Z,9.80
2019-03-13T11:44:49.160Z,9.70
2019-03-13T11:45:54.888Z,9.80
2019-03-13T11:47:03.687Z,9.70
2019-03-13T11:48:12.413Z,9.70
2019-03-13T11:49:31.790Z,9.70
2019-03-13T11:50:51.302Z,9.60
2019-03-13T11:52:10.881Z,9.60
2019-03-13T11:53:16.583Z,9.60
2019-03-13T11:54:22.278Z,9.60
2019-03-13T11:55:25.212Z,9.60
2019-03-13T11:56:46.444Z,9.60
2019-03-13T11:58:04.286Z,9.60
2019-03-13T11:59:07.333Z,9.60
2019-03-13T12:00:23.327Z,9.60
2019-03-13T12:01:28.938Z,9.70
2019-03-13T12:02:31.865Z,9.60
2019-03-13T12:03:40.361Z,9.70
2019-03-13T12:04:59.916Z,9.70
2019-03-13T12:06:20.996Z,9.70
2019-03-13T12:07:23.930Z,9.70
2019-03-13T12:08:26.953Z,9.70
2019-03-13T12:09:29.946Z,9.70
2019-03-13T12:10:32.969Z,9.70
2019-03-13T12:11:35.960Z,9.80
2019-03-13T12:12:44.529Z,9.70
2019-03-13T12:14:02.658Z,9.70
2019-03-13T12:15:15.474Z,9.80
2019-03-13T12:16:27.374Z,9.80
2019-03-13T12:17:30.356Z,9.90
2019-03-13T12:18:45.608Z,10.00
2019-03-13T12:19:51.090Z,10.00
2019-03-13T12:20:54.026Z,9.90
2019-03-13T12:22:13.540Z,10.00
2019-03-13T12:23:16.510Z,10.10
2019-03-13T12:24:22.365Z,10.20
2019-03-13T12:25:25.311Z,10.30
2019-03-13T12:26:30.781Z,10.30
2019-03-13T12:27:39.521Z,10.40
2019-03-13T12:28:51.725Z,10.40
2019-03-13T12:29:54.761Z,10.50
2019-03-13T12:30:57.705Z,10.50
2019-03-13T12:32:06.183Z,10.60
2019-03-13T12:33:17.886Z,10.70
2019-03-13T12:34:20.821Z,10.60
2019-03-13T12:35:26.382Z,10.60
2019-03-13T12:36:29.316Z,10.50
2019-03-13T12:37:32.251Z,10.50
2019-03-13T12:38:35.178Z,10.50
2019-03-13T12:39:54.720Z,10.40
2019-03-13T12:41:00.453Z,10.40
2019-03-13T12:42:06.712Z,10.40
2019-03-13T12:43:12.156Z,10.30
2019-03-13T12:44:20.866Z,10.30
2019-03-13T12:45:23.900Z,10.20
2019-03-13T12:46:43.491Z,10.30
2019-03-13T12:47:46.413Z,10.30
2019-03-13T12:48:49.452Z,10.30
2019-03-13T12:50:09.042Z,10.40
2019-03-13T12:51:17.746Z,10.40
2019-03-13T12:52:36.856Z,10.40
2019-03-13T12:53:45.298Z,10.40
2019-03-13T12:55:06.161Z,10.40
2019-03-13T12:56:09.318Z,10.50
2019-03-13T12:57:27.060Z,10.40
2019-03-13T12:58:46.520Z,10.50
2019-03-13T12:59:58.383Z,10.50
2019-03-13T13:01:04.160Z,10.60
2019-03-13T13:02:10.337Z,10.70
2019-03-13T13:03:25.254Z,10.80
2019-03-13T13:04:28.558Z,10.90
2019-03-13T13:05:37.961Z,10.90
2019-03-13T13:06:52.705Z,10.90
2019-03-13T13:07:55.636Z,10.90
2019-03-13T13:09:15.314Z,10.80
2019-03-13T13:10:36.297Z,10.70
2019-03-13T13:11:39.217Z,10.70
2019-03-13T13:13:00.076Z,10.60
2019-03-13T13:14:03.009Z,10.60
2019-03-13T13:15:18.245Z,10.50
2019-03-13T13:16:37.864Z,10.40
2019-03-13T13:17:43.560Z,10.40
2019-03-13T13:18:53.280Z,10.10
2019-03-13T13:19:54.301Z,10.10
2019-03-13T13:20:55.377Z,10.10
2019-03-13T13:21:56.457Z,10.10
2019-03-13T13:22:57.490Z,10.00
2019-03-13T13:23:58.517Z,9.90
2019-03-13T13:24:59.559Z,9.80
2019-03-13T13:26:00.677Z,9.80
2019-03-13T13:27:01.700Z,9.90
2019-03-13T13:28:03.021Z,9.90
2019-03-13T13:29:04.054Z,9.80
2019-03-13T13:30:08.960Z,9.60
2019-03-13T13:31:10.192Z,9.60
2019-03-13T13:32:11.212Z,9.50
2019-03-13T13:33:12.271Z,9.30
2019-03-13T13:34:13.292Z,9.20
2019-03-13T13:35:14.411Z,9.20
2019-03-13T13:36:15.454Z,9.20
2019-03-13T13:37:16.476Z,9.10
2019-03-13T13:38:17.493Z,9.00
2019-03-13T13:39:18.537Z,9.00
2019-03-13T13:40:19.616Z,9.00
2019-03-13T13:41:20.644Z,9.10
2019-03-13T13:42:21.667Z,9.20
2019-03-13T13:43:22.686Z,9.30
2019-03-13T13:44:23.701Z,9.30
2019-03-13T13:45:33.023Z,9.40
2019-03-13T13:46:34.538Z,9.50
2019-03-13T13:47:35.556Z,9.70
2019-03-13T13:48:36.583Z,9.80
2019-03-13T13:49:37.597Z,9.90
2019-03-13T13:50:38.630Z,10.10
2019-03-13T13:51:39.758Z,10.20
2019-03-13T13:52:40.781Z,10.30
2019-03-13T13:53:41.800Z,10.20
2019-03-13T13:54:42.822Z,10.20
2019-03-13T13:55:43.836Z,10.30
2019-03-13T13:56:44.877Z,10.40
2019-03-13T13:57:45.892Z,10.50
2019-03-13T13:58:46.933Z,10.60
2019-03-13T13:59:48.021Z,10.70
2019-03-13T14:00:49.031Z,10.70
2019-03-13T14:01:50.087Z,10.80
2019-03-13T14:02:51.121Z,10.80
2019-03-13T14:03:52.156Z,10.80
2019-03-13T14:04:53.180Z,10.80
2019-03-13T14:05:54.193Z,10.80
2019-03-13T14:06:55.225Z,10.80
2019-03-13T14:07:56.249Z,10.80
2019-03-13T14:08:57.271Z,10.80
2019-03-13T14:09:58.289Z,10.70
2019-03-13T14:10:59.319Z,10.70
2019-03-13T14:12:00.356Z,10.70
2019-03-13T14:13:01.398Z,10.70
2019-03-13T14:14:02.524Z,10.70
2019-03-13T14:15:06.646Z,10.70
2019-03-13T14:16:07.672Z,10.80